Time;durP1;ratioP1;P1;durP2;ratioP2;P2;SDS_P1;SDS_P2;PMS_P1;PMS_P2;Temp;Humidity;BMP_temperature;BMP_pressure;BME280_temperature;BME280_humidity;BME280_pressure;Samples;Min_cycle;Max_cycle;Signal;HPM_P1;HPM_P2
2022/04/10 00:01:32;;;;;;;;;8.33;8.33;;;;;;;;5043382;28;11582;-73
2022/04/10 00:04:00;;;;;;;;;11.33;9.00;;;;;;;;5038620;28;8876;-73
2022/04/10 00:06:29;;;;;;;;;9.00;9.00;;;;;;;;5024649;28;8879;-72
2022/04/10 00:08:56;;;;;;;;;12.00;8.00;;;;;;;;5037189;28;11535;-71
2022/04/10 00:11:24;;;;;;;;;8.00;8.00;;;;;;;;5044038;28;11629;-70
2022/04/10 00:13:52;;;;;;;;;11.00;11.00;;;;;;;;5043310;28;8869;-71
2022/04/10 00:16:19;;;;;;;;;12.00;12.00;;;;;;;;5043811;28;8872;-71
2022/04/10 00:18:47;;;;;;;;;10.33;8.33;;;;;;;;5043136;28;8919;-73
2022/04/10 00:21:14;;;;;;;;;9.00;9.00;;;;;;;;5043612;28;8958;-72
2022/04/10 00:23:43;;;;;;;;;12.00;9.00;;;;;;;;5038075;28;8891;-72
2022/04/10 00:26:12;;;;;;;;;15.67;11.00;;;;;;;;5035544;28;9028;-72
2022/04/10 00:28:39;;;;;;;;;15.00;15.00;;;;;;;;5043698;28;8873;-72
2022/04/10 00:31:07;;;;;;;;;8.67;8.67;;;;;;;;5041530;28;8940;-73
2022/04/10 00:33:34;;;;;;;;;12.00;12.00;;;;;;;;5043426;28;8885;-72
2022/04/10 00:36:01;;;;;;;;;12.00;10.33;;;;;;;;5043212;28;8913;-72
2022/04/10 00:38:28;;;;;;;;;11.00;9.67;;;;;;;;5041660;28;8935;-72
2022/04/10 00:40:57;;;;;;;;;13.67;11.67;;;;;;;;5043281;28;8857;-71
2022/04/10 00:43:30;;;;;;;;;15.33;14.33;;;;;;;;5039781;28;8924;-71
2022/04/10 00:45:58;;;;;;;;;15.67;15.00;;;;;;;;5033152;28;8911;-71
2022/04/10 00:48:26;;;;;;;;;16.00;16.00;;;;;;;;5041940;28;9668;-71
2022/04/10 00:53:34;;;;;;;;;14.00;12.00;;;;;;;;5030340;28;8868;-71
2022/04/10 00:56:03;;;;;;;;;19.33;15.00;;;;;;;;5042789;28;8887;-71
2022/04/10 00:58:30;;;;;;;;;12.67;11.33;;;;;;;;5039687;28;8876;-72
2022/04/10 01:00:58;;;;;;;;;16.00;11.67;;;;;;;;5034164;28;8814;-74
2022/04/10 01:03:25;;;;;;;;;11.00;11.00;;;;;;;;5040434;28;9834;-72
2022/04/10 01:05:52;;;;;;;;;11.33;11.33;;;;;;;;5041785;28;8919;-71
2022/04/10 01:08:20;;;;;;;;;20.00;17.33;;;;;;;;5037982;28;8881;-71
2022/04/10 01:10:47;;;;;;;;;14.00;14.00;;;;;;;;5032693;28;8854;-72
2022/04/10 01:13:15;;;;;;;;;16.33;16.33;;;;;;;;5032164;28;8883;-72
2022/04/10 01:15:43;;;;;;;;;11.67;11.67;;;;;;;;5038943;28;8919;-71
2022/04/10 01:18:11;;;;;;;;;11.00;10.33;;;;;;;;5029233;28;8904;-71
2022/04/10 01:20:39;;;;;;;;;12.00;11.00;;;;;;;;5038717;28;8988;-71
2022/04/10 01:23:08;;;;;;;;;14.00;14.00;;;;;;;;5041303;28;9005;-71
2022/04/10 01:25:36;;;;;;;;;11.00;11.00;;;;;;;;5041948;28;8988;-72
2022/04/10 01:28:12;;;;;;;;;9.00;9.00;;;;;;;;5033260;28;9641;-72
2022/04/10 01:30:39;;;;;;;;;11.67;11.33;;;;;;;;5040528;28;8801;-73
2022/04/10 01:33:06;;;;;;;;;11.33;11.33;;;;;;;;5034262;28;8871;-72
2022/04/10 01:35:34;;;;;;;;;11.00;11.00;;;;;;;;5041175;28;9226;-72
2022/04/10 01:38:02;;;;;;;;;11.33;11.33;;;;;;;;5041059;28;8893;-71
2022/04/10 01:40:31;;;;;;;;;11.67;9.33;;;;;;;;5031842;28;8899;-71
2022/04/10 01:42:59;;;;;;;;;10.00;9.67;;;;;;;;5041916;28;8860;-71
2022/04/10 01:45:26;;;;;;;;;16.33;12.33;;;;;;;;5035910;28;8907;-71
2022/04/10 01:47:54;;;;;;;;;13.33;10.33;;;;;;;;5039825;28;8907;-71
2022/04/10 01:50:22;;;;;;;;;11.00;11.00;;;;;;;;5031282;28;8873;-71
2022/04/10 01:52:49;;;;;;;;;5.67;4.67;;;;;;;;5036262;28;8981;-74
2022/04/10 01:55:16;;;;;;;;;11.67;11.67;;;;;;;;5040826;28;8900;-72
2022/04/10 01:57:45;;;;;;;;;18.00;15.00;;;;;;;;5040489;28;8846;-72
2022/04/10 02:00:13;;;;;;;;;13.00;13.00;;;;;;;;5035311;28;9663;-72
2022/04/10 02:02:41;;;;;;;;;17.33;12.00;;;;;;;;5035334;28;9039;-72
2022/04/10 02:05:09;;;;;;;;;12.00;12.00;;;;;;;;5042570;28;8881;-72
2022/04/10 02:07:36;;;;;;;;;12.00;9.00;;;;;;;;5033103;28;8976;-71
2022/04/10 02:10:03;;;;;;;;;8.00;6.33;;;;;;;;5037425;28;8995;-71
2022/04/10 02:12:33;;;;;;;;;11.67;11.00;;;;;;;;5041078;28;8873;-71
2022/04/10 02:15:02;;;;;;;;;11.33;9.33;;;;;;;;5034986;28;8861;-71
2022/04/10 02:17:29;;;;;;;;;14.33;13.33;;;;;;;;5041278;28;8990;-71
2022/04/10 02:19:56;;;;;;;;;16.33;12.00;;;;;;;;5033355;28;8856;-71
2022/04/10 02:22:23;;;;;;;;;8.67;5.00;;;;;;;;5042924;28;9632;-77
2022/04/10 02:24:53;;;;;;;;;11.33;11.33;;;;;;;;5040036;28;8889;-73
2022/04/10 02:27:21;;;;;;;;;18.67;14.00;;;;;;;;5034745;28;8893;-71
2022/04/10 02:29:48;;;;;;;;;13.33;11.00;;;;;;;;5034745;28;8983;-73
2022/04/10 02:32:17;;;;;;;;;18.33;17.67;;;;;;;;5042700;28;8840;-74
2022/04/10 02:34:44;;;;;;;;;16.00;12.00;;;;;;;;5045978;28;8899;-72
2022/04/10 02:37:11;;;;;;;;;28.67;16.67;;;;;;;;5045398;28;8885;-71
2022/04/10 02:39:39;;;;;;;;;18.00;14.00;;;;;;;;5046118;28;8932;-71
2022/04/10 02:42:07;;;;;;;;;14.00;14.00;;;;;;;;5035640;28;8918;-70
2022/04/10 02:44:34;;;;;;;;;15.00;14.00;;;;;;;;5044715;28;8889;-71
2022/04/10 02:47:02;;;;;;;;;9.33;9.33;;;;;;;;5045576;28;8877;-71
2022/04/10 02:49:30;;;;;;;;;9.67;9.67;;;;;;;;5042973;28;8873;-70
2022/04/10 02:51:58;;;;;;;;;20.00;15.00;;;;;;;;5040043;28;8861;-73
2022/04/10 02:54:25;;;;;;;;;15.00;14.00;;;;;;;;5043943;28;9099;-71
2022/04/10 02:56:52;;;;;;;;;15.33;12.33;;;;;;;;5045911;28;8984;-71
2022/04/10 02:59:19;;;;;;;;;14.33;14.33;;;;;;;;5033768;28;8847;-71
2022/04/10 03:01:50;;;;;;;;;14.00;14.00;;;;;;;;5037922;28;8821;-72
2022/04/10 03:04:17;;;;;;;;;14.00;14.00;;;;;;;;5042007;28;8897;-71
2022/04/10 03:06:46;;;;;;;;;16.00;15.33;;;;;;;;5044621;28;9627;-71
2022/04/10 03:09:13;;;;;;;;;15.00;12.33;;;;;;;;5045231;28;8862;-72
2022/04/10 03:11:40;;;;;;;;;18.33;17.33;;;;;;;;5042789;28;8869;-72
2022/04/10 03:14:08;;;;;;;;;14.00;14.00;;;;;;;;5043090;28;8881;-73
2022/04/10 03:16:35;;;;;;;;;13.67;13.67;;;;;;;;5038493;28;8903;-71
2022/04/10 03:19:03;;;;;;;;;17.00;15.00;;;;;;;;5040973;28;8900;-71
2022/04/10 03:21:30;;;;;;;;;8.00;8.00;;;;;;;;5035115;28;8851;-71
2022/04/10 03:23:59;;;;;;;;;16.67;13.67;;;;;;;;5041310;28;8877;-71
2022/04/10 03:26:26;;;;;;;;;11.33;11.33;;;;;;;;5045205;28;8919;-73
2022/04/10 03:28:53;;;;;;;;;13.67;13.67;;;;;;;;5038068;28;8926;-71
2022/04/10 03:31:21;;;;;;;;;14.00;12.33;;;;;;;;5041952;28;8879;-75
2022/04/10 03:33:48;;;;;;;;;14.33;14.33;;;;;;;;5033253;28;8861;-71
2022/04/10 03:36:15;;;;;;;;;17.00;14.00;;;;;;;;5044768;28;8907;-71
2022/04/10 03:38:43;;;;;;;;;15.00;13.33;;;;;;;;5044636;28;8881;-71
2022/04/10 03:41:11;;;;;;;;;10.67;10.67;;;;;;;;5030606;28;8868;-71
2022/04/10 03:43:39;;;;;;;;;15.00;13.33;;;;;;;;5041015;28;8873;-71
2022/04/10 03:46:06;;;;;;;;;14.00;14.00;;;;;;;;5043458;28;8881;-71
2022/04/10 03:48:33;;;;;;;;;17.00;12.00;;;;;;;;5041162;28;8860;-72
2022/04/10 03:51:01;;;;;;;;;20.33;16.00;;;;;;;;5037065;28;8860;-72
2022/04/10 03:53:28;;;;;;;;;14.00;14.00;;;;;;;;5044734;28;8889;-72
2022/04/10 03:55:55;;;;;;;;;14.00;14.00;;;;;;;;5044048;28;8861;-72
2022/04/10 03:58:24;;;;;;;;;12.33;11.33;;;;;;;;5043184;28;8907;-71
2022/04/10 04:00:51;;;;;;;;;19.33;15.00;;;;;;;;5036763;28;8867;-72
2022/04/10 04:03:19;;;;;;;;;12.67;11.67;;;;;;;;5029425;28;8906;-71
2022/04/10 04:05:46;;;;;;;;;12.33;12.33;;;;;;;;5040346;28;8888;-72
2022/04/10 04:08:15;;;;;;;;;13.67;13.67;;;;;;;;5043096;28;9930;-71
2022/04/10 04:10:42;;;;;;;;;11.00;11.00;;;;;;;;5043579;28;8873;-71
2022/04/10 04:13:09;;;;;;;;;17.00;14.67;;;;;;;;5039442;28;8882;-71
2022/04/10 04:15:38;;;;;;;;;27.00;20.00;;;;;;;;5039474;28;8881;-71
2022/04/10 04:18:05;;;;;;;;;21.33;20.67;;;;;;;;5042966;28;8849;-74
2022/04/10 04:20:33;;;;;;;;;18.00;15.67;;;;;;;;5040889;28;9666;-70
2022/04/10 04:23:00;;;;;;;;;2.00;0.00;;;;;;;;5036735;28;8868;-73
2022/04/10 04:25:27;;;;;;;;;20.33;16.67;;;;;;;;5037563;28;8891;-70
2022/04/10 04:27:55;;;;;;;;;19.00;14.00;;;;;;;;5041470;28;9514;-72
2022/04/10 04:30:22;;;;;;;;;20.00;15.67;;;;;;;;5042779;28;8849;-72
2022/04/10 04:32:51;;;;;;;;;17.67;17.67;;;;;;;;5042782;28;8877;-71
2022/04/10 04:35:18;;;;;;;;;17.00;12.33;;;;;;;;5043827;28;8904;-71
2022/04/10 04:37:45;;;;;;;;;16.67;16.67;;;;;;;;5042382;28;8873;-71
2022/04/10 04:40:14;;;;;;;;;13.00;11.67;;;;;;;;5037688;28;8879;-71
2022/04/10 04:42:41;;;;;;;;;9.67;8.00;;;;;;;;5034686;28;8908;-71
2022/04/10 04:45:09;;;;;;;;;17.00;14.67;;;;;;;;5042601;28;8912;-72
2022/04/10 04:47:37;;;;;;;;;17.00;15.33;;;;;;;;5042494;28;8962;-75
2022/04/10 04:50:06;;;;;;;;;13.67;10.00;;;;;;;;5042898;28;8889;-72
2022/04/10 04:52:33;;;;;;;;;14.33;13.00;;;;;;;;5043117;28;9724;-71
2022/04/10 04:55:01;;;;;;;;;12.33;12.33;;;;;;;;5040616;28;8885;-71
2022/04/10 04:57:28;;;;;;;;;19.33;17.33;;;;;;;;5034986;28;8884;-71
2022/04/10 04:59:55;;;;;;;;;11.33;11.33;;;;;;;;5035034;28;8879;-71
2022/04/10 05:02:23;;;;;;;;;13.67;13.67;;;;;;;;5028712;28;8982;-75
2022/04/10 05:04:51;;;;;;;;;16.00;16.00;;;;;;;;5042122;28;8866;-71
2022/04/10 05:07:20;;;;;;;;;16.67;14.00;;;;;;;;5040372;28;8890;-71
2022/04/10 05:09:47;;;;;;;;;12.00;12.00;;;;;;;;5035427;28;8869;-72
2022/04/10 05:12:14;;;;;;;;;14.00;14.00;;;;;;;;5040018;28;8874;-73
2022/04/10 05:14:42;;;;;;;;;14.00;14.00;;;;;;;;5036632;28;8845;-72
2022/04/10 05:17:09;;;;;;;;;15.33;12.67;;;;;;;;5038529;28;8853;-75
2022/04/10 05:19:36;;;;;;;;;13.33;13.33;;;;;;;;5041561;28;8892;-71
2022/04/10 05:22:04;;;;;;;;;6.33;6.33;;;;;;;;5038225;28;8857;-80
2022/04/10 05:24:33;;;;;;;;;12.33;12.33;;;;;;;;5037315;28;8879;-72
2022/04/10 05:27:00;;;;;;;;;14.00;14.00;;;;;;;;5031587;28;8857;-72
2022/04/10 05:29:27;;;;;;;;;14.33;14.33;;;;;;;;5028990;28;8877;-72
2022/04/10 05:31:54;;;;;;;;;18.67;16.33;;;;;;;;5038150;28;8821;-76
2022/04/10 05:34:22;;;;;;;;;11.00;11.00;;;;;;;;5032834;28;8939;-76
2022/04/10 05:36:49;;;;;;;;;15.33;10.33;;;;;;;;5042465;28;8874;-77
2022/04/10 05:39:16;;;;;;;;;11.00;8.00;;;;;;;;5038943;28;8909;-79
2022/04/10 05:41:45;;;;;;;;;14.33;12.33;;;;;;;;5037116;28;8917;-80
2022/04/10 05:44:13;;;;;;;;;14.00;14.00;;;;;;;;5038472;28;8932;-81
2022/04/10 05:46:40;;;;;;;;;18.00;13.33;;;;;;;;5037635;28;8885;-80
2022/04/10 05:49:08;;;;;;;;;14.33;11.00;;;;;;;;5036654;28;8877;-79
2022/04/10 05:51:35;;;;;;;;;9.33;9.33;;;;;;;;5036727;28;8868;-79
2022/04/10 05:54:02;;;;;;;;;9.67;8.67;;;;;;;;5039072;28;8857;-81
2022/04/10 05:56:30;;;;;;;;;13.33;11.00;;;;;;;;5034070;28;8869;-79
2022/04/10 05:58:58;;;;;;;;;11.00;11.00;;;;;;;;5036299;28;8857;-75
2022/04/10 06:01:25;;;;;;;;;14.00;11.00;;;;;;;;5038064;28;8844;-75
2022/04/10 06:03:53;;;;;;;;;18.67;12.00;;;;;;;;5039708;28;9608;-79
2022/04/10 06:06:20;;;;;;;;;14.67;12.00;;;;;;;;5039782;28;8865;-80
2022/04/10 06:08:47;;;;;;;;;12.00;11.00;;;;;;;;5041067;28;8995;-81
2022/04/10 06:11:14;;;;;;;;;15.67;14.00;;;;;;;;5031827;28;8852;-81
2022/04/10 06:13:42;;;;;;;;;16.33;12.67;;;;;;;;5036681;28;8868;-81
2022/04/10 06:16:10;;;;;;;;;14.33;12.00;;;;;;;;5043331;28;8984;-81
2022/04/10 06:18:38;;;;;;;;;17.33;15.33;;;;;;;;5039464;28;8893;-81
2022/04/10 06:21:05;;;;;;;;;18.00;15.67;;;;;;;;5043346;28;9003;-78
2022/04/10 06:23:32;;;;;;;;;18.00;15.00;;;;;;;;5042003;28;8849;-84
2022/04/10 06:26:00;;;;;;;;;19.67;17.00;;;;;;;;5037259;28;8854;-81
2022/04/10 06:28:27;;;;;;;;;25.67;24.33;;;;;;;;5037875;28;8898;-76
2022/04/10 06:30:55;;;;;;;;;30.67;26.67;;;;;;;;5041927;28;8806;-77
2022/04/10 06:33:23;;;;;;;;;31.33;27.00;;;;;;;;5042450;28;8865;-76
2022/04/10 06:35:51;;;;;;;;;25.00;25.00;;;;;;;;5043032;28;8881;-76
2022/04/10 06:38:18;;;;;;;;;24.00;21.00;;;;;;;;5041199;28;8908;-77
2022/04/10 06:40:47;;;;;;;;;33.33;25.33;;;;;;;;5040920;28;8877;-76
2022/04/10 06:43:14;;;;;;;;;30.00;26.00;;;;;;;;5032883;28;8866;-78
2022/04/10 06:45:42;;;;;;;;;34.33;26.00;;;;;;;;5039484;28;8899;-76
2022/04/10 06:48:10;;;;;;;;;30.67;30.33;;;;;;;;5042470;28;8893;-75
2022/04/10 06:50:39;;;;;;;;;34.00;34.00;;;;;;;;5031681;28;9681;-77
2022/04/10 06:53:06;;;;;;;;;37.00;35.33;;;;;;;;5025708;28;8848;-75
2022/04/10 06:55:33;;;;;;;;;36.00;31.33;;;;;;;;5044380;28;8873;-77
2022/04/10 06:58:00;;;;;;;;;32.33;28.33;;;;;;;;5043645;28;8883;-76
2022/04/10 07:00:28;;;;;;;;;44.67;40.33;;;;;;;;5031769;28;9577;-77
2022/04/10 07:02:55;;;;;;;;;25.00;25.00;;;;;;;;5030553;28;8856;-79
2022/04/10 07:05:23;;;;;;;;;39.33;36.33;;;;;;;;5033278;28;8961;-76
2022/04/10 07:07:52;;;;;;;;;27.33;27.33;;;;;;;;5030661;28;8879;-77
2022/04/10 07:10:19;;;;;;;;;28.00;28.00;;;;;;;;5031684;28;9662;-76
2022/04/10 07:12:47;;;;;;;;;25.33;24.33;;;;;;;;5040348;28;9629;-77
2022/04/10 07:15:14;;;;;;;;;33.33;29.33;;;;;;;;5035560;28;11605;-77
2022/04/10 07:17:42;;;;;;;;;29.00;27.33;;;;;;;;5033613;28;11739;-77
2022/04/10 07:20:10;;;;;;;;;23.75;23.00;;;;;;;;5041269;28;11592;-77
2022/04/10 07:25:24;;;;;;;;;21.50;19.50;;;;;;;;5038357;28;11550;-77
2022/04/10 07:27:52;;;;;;;;;25.25;23.00;;;;;;;;5032178;28;11619;-77
2022/04/10 07:30:19;;;;;;;;;21.00;18.00;;;;;;;;5035160;28;11582;-77
2022/04/10 07:32:52;;;;;;;;;28.25;24.00;;;;;;;;5040610;28;12449;-77
2022/04/10 07:35:21;;;;;;;;;24.00;20.50;;;;;;;;5043538;28;11625;-78
2022/04/10 07:37:48;;;;;;;;;17.25;17.25;;;;;;;;5043895;28;11577;-77
2022/04/10 07:40:16;;;;;;;;;16.50;16.50;;;;;;;;5036313;28;11591;-77
2022/04/10 07:42:45;;;;;;;;;22.25;18.75;;;;;;;;5041775;28;11581;-78
2022/04/10 07:47:25;;;;;;;;;29.75;22.75;;;;;;;;5041332;28;11627;-76
2022/04/10 07:48:00;;;;;;;;;13.00;13.00;;;;;;;;5040021;28;11578;-76
2022/04/10 07:50:28;;;;;;;;;13.25;13.25;;;;;;;;5036951;28;11572;-78
2022/04/10 07:52:56;;;;;;;;;19.50;17.25;;;;;;;;5040830;28;11584;-78
2022/04/10 07:55:25;;;;;;;;;16.25;13.25;;;;;;;;5033167;28;11594;-78
2022/04/10 07:57:54;;;;;;;;;10.00;10.00;;;;;;;;5041570;28;11600;-78
2022/04/10 08:00:21;;;;;;;;;9.75;9.75;;;;;;;;5032723;28;11601;-78
2022/04/10 08:02:49;;;;;;;;;13.50;13.50;;;;;;;;5036352;28;11589;-78
2022/04/10 08:05:17;;;;;;;;;15.00;12.75;;;;;;;;5039460;28;11621;-78
2022/04/10 08:07:44;;;;;;;;;11.50;10.75;;;;;;;;5040053;28;11699;-78
2022/04/10 08:10:13;;;;;;;;;16.75;14.50;;;;;;;;5043082;28;11587;-78
2022/04/10 08:12:40;;;;;;;;;14.00;14.00;;;;;;;;5033649;28;11588;-77
2022/04/10 08:15:11;;;;;;;;;16.50;14.75;;;;;;;;5030722;28;11622;-80
2022/04/10 08:17:38;;;;;;;;;19.25;18.00;;;;;;;;5039649;28;12372;-78
2022/04/10 08:20:07;;;;;;;;;10.25;10.25;;;;;;;;5036895;28;11607;-82
2022/04/10 08:22:36;;;;;;;;;16.25;14.25;;;;;;;;5039664;28;11611;-79
2022/04/10 08:25:05;;;;;;;;;6.00;6.00;;;;;;;;5038826;28;11591;-81
2022/04/10 08:27:32;;;;;;;;;14.50;10.00;;;;;;;;5040224;28;11473;-84
2022/04/10 08:30:00;;;;;;;;;8.75;8.75;;;;;;;;5042919;28;11523;-84
2022/04/10 08:32:36;;;;;;;;;7.00;5.25;;;;;;;;5029391;28;11596;-81
2022/04/10 08:35:04;;;;;;;;;5.00;4.50;;;;;;;;5040251;28;11479;-82
2022/04/10 08:37:31;;;;;;;;;2.50;2.50;;;;;;;;5040831;28;11274;-82
2022/04/10 08:39:59;;;;;;;;;1.75;1.75;;;;;;;;5033577;28;11977;-82
2022/04/10 08:42:26;;;;;;;;;8.00;8.00;;;;;;;;5040263;28;11001;-82
2022/04/10 08:44:55;;;;;;;;;2.50;2.50;;;;;;;;5037593;28;11537;-83
2022/04/10 08:47:23;;;;;;;;;1.75;1.75;;;;;;;;5039990;28;10985;-81
2022/04/10 08:49:53;;;;;;;;;2.00;2.00;;;;;;;;5038488;28;10712;-82
2022/04/10 08:52:22;;;;;;;;;1.50;1.50;;;;;;;;5036844;28;10638;-83
2022/04/10 08:54:50;;;;;;;;;5.00;2.25;;;;;;;;5039399;28;10712;-83
2022/04/10 08:57:18;;;;;;;;;3.50;3.50;;;;;;;;5033439;28;10510;-83
2022/04/10 08:59:45;;;;;;;;;5.75;3.00;;;;;;;;5036140;28;10577;-83
2022/04/10 09:02:13;;;;;;;;;2.25;2.25;;;;;;;;5035482;28;10596;-83
2022/04/10 09:04:41;;;;;;;;;8.50;6.25;;;;;;;;5037837;28;10407;-83
2022/04/10 09:07:12;;;;;;;;;19.50;16.50;;;;;;;;5041256;28;10855;-82
2022/04/10 09:09:43;;;;;;;;;12.50;6.25;;;;;;;;5033900;28;11725;-80
2022/04/10 09:12:11;;;;;;;;;7.25;7.25;;;;;;;;5040591;28;10751;-81
2022/04/10 09:14:40;;;;;;;;;1.50;1.50;;;;;;;;5039680;28;10461;-84
2022/04/10 09:17:12;;;;;;;;;1.25;1.25;;;;;;;;5038680;28;9994;-80
2022/04/10 09:19:41;;;;;;;;;14.25;14.25;;;;;;;;5037693;28;9647;-79
2022/04/10 09:22:24;;;;;;;;;2.00;2.00;;;;;;;;5040713;28;10634;-80
2022/04/10 09:25:13;;;;;;;;;1.00;1.00;;;;;;;;5035327;28;9731;-80
2022/04/10 09:27:42;;;;;;;;;0.00;0.00;;;;;;;;5034898;28;9649;-83
2022/04/10 09:30:10;;;;;;;;;2.00;2.00;;;;;;;;5033271;28;9490;-77
2022/04/10 09:32:39;;;;;;;;;0.33;0.33;;;;;;;;5032304;28;9951;-76
2022/04/10 09:35:07;;;;;;;;;0.33;0.33;;;;;;;;5041313;28;9402;-77
2022/04/10 09:37:47;;;;;;;;;1.00;1.00;;;;;;;;5032874;28;9416;-78
2022/04/10 09:40:24;;;;;;;;;2.00;2.00;;;;;;;;5040217;28;9559;-79
2022/04/10 09:42:52;;;;;;;;;0.00;0.00;;;;;;;;5036382;28;9567;-78
2022/04/10 09:45:30;;;;;;;;;0.00;0.00;;;;;;;;5031050;28;9703;-79
2022/04/10 09:47:58;;;;;;;;;2.00;1.00;;;;;;;;5040031;28;9300;-77
2022/04/10 09:50:32;;;;;;;;;1.00;1.00;;;;;;;;5038504;28;9231;-80
2022/04/10 09:53:08;;;;;;;;;0.00;0.00;;;;;;;;5038914;28;9330;-80
2022/04/10 09:55:37;;;;;;;;;1.67;1.67;;;;;;;;5036905;28;9918;-81
2022/04/10 09:58:08;;;;;;;;;1.00;1.00;;;;;;;;5042049;28;9194;-81
2022/04/10 10:00:38;;;;;;;;;1.00;1.00;;;;;;;;5040811;28;9177;-80
2022/04/10 10:03:06;;;;;;;;;0.67;0.67;;;;;;;;5030638;28;9110;-80
2022/04/10 10:05:33;;;;;;;;;0.00;0.00;;;;;;;;5029369;28;8945;-82
2022/04/10 10:08:02;;;;;;;;;1.00;1.00;;;;;;;;5034980;28;8949;-80
2022/04/10 10:10:32;;;;;;;;;1.00;1.00;;;;;;;;5034805;28;8978;-80
2022/04/10 10:13:01;;;;;;;;;3.00;2.00;;;;;;;;5035568;28;9027;-79
2022/04/10 10:15:28;;;;;;;;;0.00;0.00;;;;;;;;5038727;28;9079;-77
2022/04/10 10:17:56;;;;;;;;;0.75;0.75;;;;;;;;5038314;28;8896;-86
2022/04/10 10:20:24;;;;;;;;;1.00;1.00;;;;;;;;5041927;28;8858;-80
2022/04/10 10:22:51;;;;;;;;;1.00;1.00;;;;;;;;5037903;28;8915;-80
2022/04/10 10:25:27;;;;;;;;;0.50;0.50;;;;;;;;5031482;28;9676;-76
2022/04/10 10:28:36;;;;;;;;;2.00;0.00;;;;;;;;5029859;28;8997;-75
2022/04/10 10:31:21;;;;;;;;;1.00;1.00;;;;;;;;5031231;28;8801;-79
2022/04/10 10:33:51;;;;;;;;;0.00;0.00;;;;;;;;5036998;28;8877;-82
2022/04/10 10:36:26;;;;;;;;;0.00;0.00;;;;;;;;5035745;28;8849;-80
2022/04/10 10:38:54;;;;;;;;;0.00;0.00;;;;;;;;5026778;28;9010;-80
2022/04/10 10:41:37;;;;;;;;;1.00;1.00;;;;;;;;5037737;28;8865;-79
2022/04/10 10:44:39;;;;;;;;;0.00;0.00;;;;;;;;5035543;28;8900;-77
2022/04/10 10:47:09;;;;;;;;;0.00;0.00;;;;;;;;5039706;28;8873;-77
2022/04/10 10:49:45;;;;;;;;;0.00;0.00;;;;;;;;5039048;28;8895;-78
2022/04/10 10:52:13;;;;;;;;;2.00;0.00;;;;;;;;5039222;28;8912;-79
2022/04/10 10:54:46;;;;;;;;;1.00;1.00;;;;;;;;5041751;28;8849;-79
2022/04/10 10:57:39;;;;;;;;;2.00;2.00;;;;;;;;5032673;28;8919;-78
2022/04/10 11:00:10;;;;;;;;;1.00;1.00;;;;;;;;5038389;28;8905;-77
2022/04/10 11:02:38;;;;;;;;;1.75;0.25;;;;;;;;5042679;28;8861;-79
2022/04/10 11:05:27;;;;;;;;;1.00;1.00;;;;;;;;5042025;28;9619;-78
2022/04/10 11:07:58;;;;;;;;;2.75;1.50;;;;;;;;5040233;28;8907;-79
2022/04/10 11:10:28;;;;;;;;;1.00;1.00;;;;;;;;5040650;28;8904;-79
2022/04/10 11:13:02;;;;;;;;;1.00;1.00;;;;;;;;5037636;28;9887;-81
2022/04/10 11:15:34;;;;;;;;;2.00;1.00;;;;;;;;5040796;28;9688;-80
2022/04/10 11:18:32;;;;;;;;;1.00;1.00;;;;;;;;5039124;28;8897;-80
2022/04/10 11:21:08;;;;;;;;;0.25;0.25;;;;;;;;5037515;28;8869;-80
2022/04/10 11:23:41;;;;;;;;;2.00;1.00;;;;;;;;5040746;28;8868;-83
2022/04/10 11:26:14;;;;;;;;;0.00;0.00;;;;;;;;5042964;28;9619;-82
2022/04/10 11:29:06;;;;;;;;;3.00;3.00;;;;;;;;5034018;28;8892;-81
2022/04/10 11:31:35;;;;;;;;;5.75;2.50;;;;;;;;5025192;28;8845;-78
2022/04/10 11:34:14;;;;;;;;;2.75;1.75;;;;;;;;5030890;28;8984;-81
2022/04/10 11:36:55;;;;;;;;;3.50;3.50;;;;;;;;5034156;28;8862;-79
2022/04/10 11:39:28;;;;;;;;;0.75;0.75;;;;;;;;5040442;28;8893;-80
2022/04/10 11:41:58;;;;;;;;;17.00;16.50;;;;;;;;5039845;28;8866;-80
2022/04/10 11:44:28;;;;;;;;;7.25;4.75;;;;;;;;5040415;28;8889;-82
2022/04/10 11:46:56;;;;;;;;;7.50;6.00;;;;;;;;5041173;28;8923;-79
2022/04/10 11:49:23;;;;;;;;;2.50;2.50;;;;;;;;5039750;28;8865;-81
2022/04/10 11:51:55;;;;;;;;;38.75;35.75;;;;;;;;5040397;28;8865;-79
2022/04/10 11:54:26;;;;;;;;;3.00;3.00;;;;;;;;5024685;28;9695;-80
2022/04/10 11:56:54;;;;;;;;;1.00;1.00;;;;;;;;5028283;28;8998;-80
2022/04/10 11:59:21;;;;;;;;;1.00;1.00;;;;;;;;5039362;28;9761;-82
2022/04/10 12:01:52;;;;;;;;;0.25;0.25;;;;;;;;5034950;28;9615;-80
2022/04/10 12:04:20;;;;;;;;;1.00;1.00;;;;;;;;5035865;28;8879;-80
2022/04/10 12:06:48;;;;;;;;;2.00;1.00;;;;;;;;5037603;28;8906;-81
2022/04/10 12:09:15;;;;;;;;;4.00;0.00;;;;;;;;5042274;28;8873;-79
2022/04/10 12:11:43;;;;;;;;;0.00;0.00;;;;;;;;5041199;28;8897;-80
2022/04/10 12:14:24;;;;;;;;;1.00;1.00;;;;;;;;5041034;28;8885;-81
2022/04/10 12:16:53;;;;;;;;;1.00;1.00;;;;;;;;5031764;28;8947;-81
2022/04/10 12:19:31;;;;;;;;;2.00;2.00;;;;;;;;5027163;28;8879;-81
2022/04/10 12:21:59;;;;;;;;;0.00;0.00;;;;;;;;5040395;28;8885;-79
2022/04/10 12:24:44;;;;;;;;;2.00;2.00;;;;;;;;5085558;27;14416;-79
2022/04/10 12:27:12;;;;;;;;;1.50;1.25;;;;;;;;5079979;28;9664;-82
2022/04/10 12:29:40;;;;;;;;;0.00;0.00;;;;;;;;5078500;28;8901;-80
2022/04/10 12:32:09;;;;;;;;;1.00;1.00;;;;;;;;5042339;27;8925;-81
2022/04/10 12:34:41;;;;;;;;;0.25;0.25;;;;;;;;5036780;28;8861;-81
2022/04/10 12:37:10;;;;;;;;;0.75;0.75;;;;;;;;5037443;28;8901;-81
2022/04/10 12:39:38;;;;;;;;;0.00;0.00;;;;;;;;5039323;28;8927;-83
2022/04/10 12:42:08;;;;;;;;;0.25;0.25;;;;;;;;5039628;28;8889;-82
2022/04/10 12:44:37;;;;;;;;;1.00;1.00;;;;;;;;5047060;28;8881;-81
2022/04/10 12:47:06;;;;;;;;;0.75;0.00;;;;;;;;5036936;28;8892;-81
2022/04/10 12:49:33;;;;;;;;;1.00;1.00;;;;;;;;5039815;28;8858;-83
2022/04/10 12:52:03;;;;;;;;;2.00;0.25;;;;;;;;5036520;28;8885;-82
2022/04/10 12:54:35;;;;;;;;;3.00;1.00;;;;;;;;5038951;28;8877;-81
2022/04/10 12:57:03;;;;;;;;;0.00;0.00;;;;;;;;5035431;28;8990;-82
2022/04/10 12:59:52;;;;;;;;;2.00;1.00;;;;;;;;5041054;28;8993;-83
2022/04/10 13:02:23;;;;;;;;;0.25;0.25;;;;;;;;5015056;28;8801;-81
2022/04/10 13:04:58;;;;;;;;;0.00;0.00;;;;;;;;5015887;28;8887;-82
2022/04/10 13:07:26;;;;;;;;;4.75;4.75;;;;;;;;5010516;28;8883;-81
2022/04/10 13:10:05;;;;;;;;;0.50;0.50;;;;;;;;5013243;28;8890;-82
2022/04/10 13:12:34;;;;;;;;;1.00;1.00;;;;;;;;5014106;28;8950;-80
2022/04/10 13:15:02;;;;;;;;;1.75;0.25;;;;;;;;5020122;28;8880;-81
2022/04/10 13:17:34;;;;;;;;;0.50;0.50;;;;;;;;5006365;28;8871;-78
2022/04/10 13:20:06;;;;;;;;;1.00;1.00;;;;;;;;5010629;28;8887;-80
2022/04/10 13:22:34;;;;;;;;;0.00;0.00;;;;;;;;5019679;28;8883;-80
2022/04/10 13:25:01;;;;;;;;;1.00;1.00;;;;;;;;5039505;28;9664;-82
2022/04/10 13:27:29;;;;;;;;;0.25;0.25;;;;;;;;5019226;28;9015;-81
2022/04/10 13:29:57;;;;;;;;;1.00;1.00;;;;;;;;5039035;28;8866;-81
2022/04/10 13:32:26;;;;;;;;;1.00;1.00;;;;;;;;5022373;28;8811;-81
2022/04/10 13:34:54;;;;;;;;;1.00;1.00;;;;;;;;5030594;28;9596;-82
2022/04/10 13:37:22;;;;;;;;;0.50;0.50;;;;;;;;5025690;28;8846;-81
2022/04/10 13:39:49;;;;;;;;;1.00;1.00;;;;;;;;5022858;28;8876;-81
2022/04/10 13:42:17;;;;;;;;;1.00;1.00;;;;;;;;5024452;28;8893;-82
2022/04/10 13:44:45;;;;;;;;;1.00;1.00;;;;;;;;5020522;28;8870;-81
2022/04/10 13:47:13;;;;;;;;;1.00;1.00;;;;;;;;5024307;28;8850;-81
2022/04/10 13:49:42;;;;;;;;;1.75;1.50;;;;;;;;5023684;28;8943;-80
2022/04/10 13:52:09;;;;;;;;;1.25;1.25;;;;;;;;5023699;28;8858;-81
2022/04/10 13:54:38;;;;;;;;;2.00;1.00;;;;;;;;5024507;28;8888;-82
2022/04/10 13:57:05;;;;;;;;;2.25;1.00;;;;;;;;5020348;28;8867;-82
2022/04/10 13:59:33;;;;;;;;;1.25;1.25;;;;;;;;5021647;28;8892;-79
2022/04/10 14:02:00;;;;;;;;;1.00;1.00;;;;;;;;5036988;28;8820;-80
2022/04/10 14:04:27;;;;;;;;;1.25;1.25;;;;;;;;5026206;28;8961;-82
2022/04/10 14:06:56;;;;;;;;;2.25;2.25;;;;;;;;5042921;28;8876;-81
2022/04/10 14:09:24;;;;;;;;;1.50;1.50;;;;;;;;5043467;28;8900;-81
2022/04/10 14:11:51;;;;;;;;;1.00;1.00;;;;;;;;5039109;28;8844;-81
2022/04/10 14:14:18;;;;;;;;;0.25;0.25;;;;;;;;5039345;28;9642;-82
2022/04/10 14:16:46;;;;;;;;;1.50;1.50;;;;;;;;5025381;28;9610;-82
2022/04/10 14:19:14;;;;;;;;;1.00;1.00;;;;;;;;5022780;28;8992;-80
2022/04/10 14:21:41;;;;;;;;;1.00;1.00;;;;;;;;5041211;28;8883;-83
2022/04/10 14:24:10;;;;;;;;;1.75;1.00;;;;;;;;5035526;28;8840;-82
2022/04/10 14:26:38;;;;;;;;;1.00;1.00;;;;;;;;5033913;28;8859;-81
2022/04/10 14:29:05;;;;;;;;;1.00;1.00;;;;;;;;5034899;28;8888;-82
2022/04/10 14:31:32;;;;;;;;;1.50;1.50;;;;;;;;5040669;28;8796;-86
2022/04/10 14:34:00;;;;;;;;;1.00;1.00;;;;;;;;5043935;28;8832;-82
2022/04/10 14:36:28;;;;;;;;;1.00;1.00;;;;;;;;5041596;28;8863;-81
2022/04/10 14:38:56;;;;;;;;;2.50;2.00;;;;;;;;5043136;28;8860;-80
2022/04/10 14:41:25;;;;;;;;;2.00;2.00;;;;;;;;5042728;28;8864;-81
2022/04/10 14:43:52;;;;;;;;;2.75;1.50;;;;;;;;5044352;28;8860;-80
2022/04/10 14:46:20;;;;;;;;;1.50;1.50;;;;;;;;5036923;28;8855;-81
2022/04/10 14:48:47;;;;;;;;;1.00;1.00;;;;;;;;5037313;28;8876;-81
2022/04/10 14:51:15;;;;;;;;;1.00;1.00;;;;;;;;5042559;28;8926;-81
2022/04/10 14:53:42;;;;;;;;;2.00;2.00;;;;;;;;5036865;28;8884;-81
2022/04/10 14:56:09;;;;;;;;;1.75;1.75;;;;;;;;5022181;28;8877;-80
2022/04/10 14:58:38;;;;;;;;;3.75;2.00;;;;;;;;5035441;28;8880;-81